sensor_id;sensor_type;location;lat;lon;timestamp;pressure;altitude;pressure_sealevel;temperature;humidity
48892;BME280;50130;52.150;5.236;2023-02-04T00:00:00;103088.00000000001;;;9.56;87.25
48892;BME280;50130;52.150;5.236;2023-02-04T00:03:14;103091.00000000001;;;9.64;86.61
48892;BME280;50130;52.150;5.236;2023-02-04T00:04:50;103092.0;;;9.67;86.42
48892;BME280;50130;52.150;5.236;2023-02-04T00:06:27;103096.0;;;9.74;85.83
48892;BME280;50130;52.150;5.236;2023-02-04T00:09:40;103097.0;;;9.61;86.12
48892;BME280;50130;52.150;5.236;2023-02-04T00:11:16;103097.0;;;9.56;86.7
48892;BME280;50130;52.150;5.236;2023-02-04T00:12:52;103099.0;;;9.5;86.92
48892;BME280;50130;52.150;5.236;2023-02-04T00:14:28;103098.0;;;9.47;87.75
48892;BME280;50130;52.150;5.236;2023-02-04T00:17:41;103098.0;;;9.39;87.92
48892;BME280;50130;52.150;5.236;2023-02-04T00:19:17;103101.0;;;9.47;87.3
48892;BME280;50130;52.150;5.236;2023-02-04T00:20:54;103107.0;;;9.49;87.08
48892;BME280;50130;52.150;5.236;2023-02-04T00:24:06;103109.99999999999;;;9.65;86.03
48892;BME280;50130;52.150;5.236;2023-02-04T00:25:42;103114.00000000001;;;9.53;86.97
48892;BME280;50130;52.150;5.236;2023-02-04T00:27:18;103116.00000000001;;;9.42;87.32
48892;BME280;50130;52.150;5.236;2023-02-04T00:30:31;103122.0;;;9.48;87.16
48892;BME280;50130;52.150;5.236;2023-02-04T00:32:08;103118.0;;;9.34;87.42
48892;BME280;50130;52.150;5.236;2023-02-04T00:33:44;103120.0;;;9.28;87.86
48892;BME280;50130;52.150;5.236;2023-02-04T00:35:20;103122.0;;;9.24;88.01
48892;BME280;50130;52.150;5.236;2023-02-04T00:38:33;103118.0;;;9.31;87.97
48892;BME280;50130;52.150;5.236;2023-02-04T00:40:10;103120.0;;;9.21;88.15
48892;BME280;50130;52.150;5.236;2023-02-04T00:41:47;103123.0;;;9.22;88.17
48892;BME280;50130;52.150;5.236;2023-02-04T00:44:59;103128.0;;;9.16;88.4
48892;BME280;50130;52.150;5.236;2023-02-04T00:46:35;103134.99999999999;;;9.11;88.67
48892;BME280;50130;52.150;5.236;2023-02-04T00:48:11;103139.00000000001;;;9.17;88.59
48892;BME280;50130;52.150;5.236;2023-02-04T00:51:24;103134.99999999999;;;9.07;89.19
48892;BME280;50130;52.150;5.236;2023-02-04T00:53:01;103140.00000000001;;;9.05;89.5
48892;BME280;50130;52.150;5.236;2023-02-04T00:54:37;103132.0;;;9.02;89.58
48892;BME280;50130;52.150;5.236;2023-02-04T00:56:13;103139.00000000001;;;8.98;90.31
48892;BME280;50130;52.150;5.236;2023-02-04T00:59:26;103139.00000000001;;;9.03;89.77
48892;BME280;50130;52.150;5.236;2023-02-04T01:01:03;103140.00000000001;;;9.0;90.09
48892;BME280;50130;52.150;5.236;2023-02-04T01:02:40;103139.00000000001;;;8.91;90.58
48892;BME280;50130;52.150;5.236;2023-02-04T01:05:53;103142.0;;;8.94;90.58
48892;BME280;50130;52.150;5.236;2023-02-04T01:07:29;103144.0;;;8.99;90.02
48892;BME280;50130;52.150;5.236;2023-02-04T01:09:05;103142.0;;;8.86;91.01
48892;BME280;50130;52.150;5.236;2023-02-04T01:12:18;103150.0;;;8.81;91.36
48892;BME280;50130;52.150;5.236;2023-02-04T01:13:54;103150.0;;;8.74;91.81
48892;BME280;50130;52.150;5.236;2023-02-04T01:15:30;103153.0;;;8.81;91.65
48892;BME280;50130;52.150;5.236;2023-02-04T01:17:06;103157.0;;;8.81;92.0
48892;BME280;50130;52.150;5.236;2023-02-04T01:20:19;103157.0;;;8.85;91.65
48892;BME280;50130;52.150;5.236;2023-02-04T01:21:55;103163.00000000001;;;8.82;91.66
48892;BME280;50130;52.150;5.236;2023-02-04T01:23:32;103166.00000000001;;;8.81;91.93
48892;BME280;50130;52.150;5.236;2023-02-04T01:26:44;103166.00000000001;;;8.77;92.41
48892;BME280;50130;52.150;5.236;2023-02-04T01:28:20;103167.0;;;8.73;92.6
48892;BME280;50130;52.150;5.236;2023-02-04T01:29:56;103172.0;;;8.97;91.9
48892;BME280;50130;52.150;5.236;2023-02-04T01:33:10;103173.0;;;8.8;92.39
48892;BME280;50130;52.150;5.236;2023-02-04T01:34:46;103167.0;;;8.68;92.87
48892;BME280;50130;52.150;5.236;2023-02-04T01:36:22;103173.0;;;8.67;92.77
48892;BME280;50130;52.150;5.236;2023-02-04T01:39:35;103170.0;;;8.63;92.76
48892;BME280;50130;52.150;5.236;2023-02-04T01:41:12;103177.0;;;8.52;93.58
48892;BME280;50130;52.150;5.236;2023-02-04T01:42:50;103175.0;;;8.57;93.32
48892;BME280;50130;52.150;5.236;2023-02-04T01:44:27;103180.0;;;8.61;94.04
48892;BME280;50130;52.150;5.236;2023-02-04T01:47:41;103181.0;;;8.58;93.81
48892;BME280;50130;52.150;5.236;2023-02-04T01:49:19;103189.00000000001;;;8.57;93.86
48892;BME280;50130;52.150;5.236;2023-02-04T01:51:01;103194.0;;;8.56;94.49
48892;BME280;50130;52.150;5.236;2023-02-04T01:52:41;103195.0;;;8.57;94.39
48892;BME280;50130;52.150;5.236;2023-02-04T01:55:57;103196.0;;;8.49;95.06
48892;BME280;50130;52.150;5.236;2023-02-04T01:57:35;103200.0;;;8.63;94.76
48892;BME280;50130;52.150;5.236;2023-02-04T01:59:13;103200.0;;;8.63;94.72
48892;BME280;50130;52.150;5.236;2023-02-04T02:02:44;103205.0;;;8.53;95.46
48892;BME280;50130;52.150;5.236;2023-02-04T02:04:26;103206.0;;;8.5;95.74
48892;BME280;50130;52.150;5.236;2023-02-04T02:06:08;103202.0;;;8.44;95.77
48892;BME280;50130;52.150;5.236;2023-02-04T02:07:45;103208.0;;;8.56;95.28
48892;BME280;50130;52.150;5.236;2023-02-04T02:10:58;103211.99999999999;;;8.57;95.57
48892;BME280;50130;52.150;5.236;2023-02-04T02:12:34;103208.99999999999;;;8.56;94.7
48892;BME280;50130;52.150;5.236;2023-02-04T02:14:11;103211.99999999999;;;8.55;95.08
48892;BME280;50130;52.150;5.236;2023-02-04T02:15:48;103206.0;;;8.57;95.2
48892;BME280;50130;52.150;5.236;2023-02-04T02:19:01;103208.0;;;8.56;94.87
48892;BME280;50130;52.150;5.236;2023-02-04T02:20:39;103208.99999999999;;;8.68;94.76
48892;BME280;50130;52.150;5.236;2023-02-04T02:22:22;103209.99999999999;;;8.66;94.51
48892;BME280;50130;52.150;5.236;2023-02-04T02:24:23;103211.99999999999;;;8.57;95.09
48892;BME280;50130;52.150;5.236;2023-02-04T02:27:37;103215.00000000001;;;8.5;95.65
48892;BME280;50130;52.150;5.236;2023-02-04T02:29:14;103217.0;;;8.5;95.56
48892;BME280;50130;52.150;5.236;2023-02-04T02:30:50;103215.00000000001;;;8.34;96.14
48892;BME280;50130;52.150;5.236;2023-02-04T02:32:27;103217.0;;;8.31;96.21
48892;BME280;50130;52.150;5.236;2023-02-04T02:35:43;103215.00000000001;;;8.34;96.14
48892;BME280;50130;52.150;5.236;2023-02-04T02:37:21;103220.0;;;8.28;96.58
48892;BME280;50130;52.150;5.236;2023-02-04T02:38:59;103219.0;;;8.42;96.0
48892;BME280;50130;52.150;5.236;2023-02-04T02:42:14;103217.0;;;8.49;95.48
48892;BME280;50130;52.150;5.236;2023-02-04T02:43:51;103218.0;;;8.39;95.67
48892;BME280;50130;52.150;5.236;2023-02-04T02:45:29;103217.0;;;8.28;96.03
48892;BME280;50130;52.150;5.236;2023-02-04T02:47:11;103222.0;;;8.26;96.23
48892;BME280;50130;52.150;5.236;2023-02-04T02:50:26;103215.00000000001;;;8.26;95.97
48892;BME280;50130;52.150;5.236;2023-02-04T02:52:04;103220.0;;;8.33;95.77
48892;BME280;50130;52.150;5.236;2023-02-04T02:53:40;103220.0;;;8.19;96.29
48892;BME280;50130;52.150;5.236;2023-02-04T02:56:56;103225.0;;;8.15;96.39
48892;BME280;50130;52.150;5.236;2023-02-04T02:58:34;103228.0;;;8.25;95.82
48892;BME280;50130;52.150;5.236;2023-02-04T03:00:13;103229.0;;;8.2;95.63
48892;BME280;50130;52.150;5.236;2023-02-04T03:01:54;103227.0;;;8.2;95.88
48892;BME280;50130;52.150;5.236;2023-02-04T03:05:13;103229.0;;;8.18;95.53
48892;BME280;50130;52.150;5.236;2023-02-04T03:06:49;103228.0;;;8.08;95.95
48892;BME280;50130;52.150;5.236;2023-02-04T03:08:26;103240.00000000001;;;8.11;95.72
48892;BME280;50130;52.150;5.236;2023-02-04T03:10:04;103240.00000000001;;;8.06;95.87
48892;BME280;50130;52.150;5.236;2023-02-04T03:13:17;103238.00000000001;;;8.1;95.74
48892;BME280;50130;52.150;5.236;2023-02-04T03:14:54;103234.99999999999;;;7.99;95.96
48892;BME280;50130;52.150;5.236;2023-02-04T03:16:32;103231.0;;;7.92;96.45
48892;BME280;50130;52.150;5.236;2023-02-04T03:19:48;103230.0;;;7.94;96.49
48892;BME280;50130;52.150;5.236;2023-02-04T03:21:24;103230.0;;;7.94;96.46
48892;BME280;50130;52.150;5.236;2023-02-04T03:23:00;103227.0;;;7.85;96.63
48892;BME280;50130;52.150;5.236;2023-02-04T03:26:14;103225.0;;;7.76;96.59
48892;BME280;50130;52.150;5.236;2023-02-04T03:27:50;103227.0;;;7.91;95.92
48892;BME280;50130;52.150;5.236;2023-02-04T03:29:27;103223.0;;;7.78;95.82
48892;BME280;50130;52.150;5.236;2023-02-04T03:31:03;103226.0;;;7.72;96.37
48892;BME280;50130;52.150;5.236;2023-02-04T03:34:16;103224.0;;;7.69;96.69
48892;BME280;50130;52.150;5.236;2023-02-04T03:35:53;103230.0;;;7.62;97.1
48892;BME280;50130;52.150;5.236;2023-02-04T03:37:30;103234.99999999999;;;7.59;97.58
48892;BME280;50130;52.150;5.236;2023-02-04T03:40:43;103227.0;;;7.59;97.52
48892;BME280;50130;52.150;5.236;2023-02-04T03:42:20;103229.0;;;7.52;97.94
48892;BME280;50130;52.150;5.236;2023-02-04T03:43:56;103231.0;;;7.54;97.69
48892;BME280;50130;52.150;5.236;2023-02-04T03:47:09;103233.0;;;7.59;97.65
48892;BME280;50130;52.150;5.236;2023-02-04T03:48:45;103231.0;;;7.55;97.56
48892;BME280;50130;52.150;5.236;2023-02-04T03:50:21;103242.0;;;7.42;97.31
48892;BME280;50130;52.150;5.236;2023-02-04T03:51:57;103246.0;;;7.51;96.91
48892;BME280;50130;52.150;5.236;2023-02-04T03:55:10;103248.0;;;7.56;95.89
48892;BME280;50130;52.150;5.236;2023-02-04T03:56:46;103248.0;;;7.47;95.92
48892;BME280;50130;52.150;5.236;2023-02-04T03:58:22;103252.0;;;7.37;96.52
48892;BME280;50130;52.150;5.236;2023-02-04T04:01:35;103245.0;;;7.35;96.75
48892;BME280;50130;52.150;5.236;2023-02-04T04:03:10;103245.0;;;7.22;96.23
48892;BME280;50130;52.150;5.236;2023-02-04T04:04:47;103250.0;;;7.1;96.25
48892;BME280;50130;52.150;5.236;2023-02-04T04:08:00;103250.0;;;7.09;96.32
48892;BME280;50130;52.150;5.236;2023-02-04T04:09:36;103249.0;;;7.02;96.03
48892;BME280;50130;52.150;5.236;2023-02-04T04:11:12;103249.0;;;7.04;96.16
48892;BME280;50130;52.150;5.236;2023-02-04T04:12:49;103244.0;;;6.96;96.11
48892;BME280;50130;52.150;5.236;2023-02-04T04:16:03;103247.0;;;6.94;96.18
48892;BME280;50130;52.150;5.236;2023-02-04T04:17:39;103248.0;;;6.89;96.09
48892;BME280;50130;52.150;5.236;2023-02-04T04:19:15;103249.0;;;6.86;96.1
48892;BME280;50130;52.150;5.236;2023-02-04T04:22:28;103247.0;;;6.84;96.28
48892;BME280;50130;52.150;5.236;2023-02-04T04:24:04;103253.0;;;6.78;96.36
48892;BME280;50130;52.150;5.236;2023-02-04T04:25:41;103258.99999999999;;;6.81;96.55
48892;BME280;50130;52.150;5.236;2023-02-04T04:28:53;103263.00000000001;;;6.68;96.31
48892;BME280;50130;52.150;5.236;2023-02-04T04:30:29;103261.99999999999;;;6.68;96.59
48892;BME280;50130;52.150;5.236;2023-02-04T04:32:05;103265.00000000001;;;6.62;96.56
48892;BME280;50130;52.150;5.236;2023-02-04T04:35:18;103261.99999999999;;;6.65;96.35
48892;BME280;50130;52.150;5.236;2023-02-04T04:36:54;103264.00000000001;;;6.51;96.57
48892;BME280;50130;52.150;5.236;2023-02-04T04:38:30;103264.00000000001;;;6.5;96.93
48892;BME280;50130;52.150;5.236;2023-02-04T04:40:10;103265.00000000001;;;6.47;96.61
48892;BME280;50130;52.150;5.236;2023-02-04T04:43:23;103267.0;;;6.39;97.08
48892;BME280;50130;52.150;5.236;2023-02-04T04:44:59;103270.0;;;6.39;96.94
48892;BME280;50130;52.150;5.236;2023-02-04T04:46:35;103269.0;;;6.47;96.6
48892;BME280;50130;52.150;5.236;2023-02-04T04:49:47;103266.00000000001;;;6.47;96.37
48892;BME280;50130;52.150;5.236;2023-02-04T04:51:24;103267.0;;;6.35;96.8
48892;BME280;50130;52.150;5.236;2023-02-04T04:53:00;103266.00000000001;;;6.42;97.23
48892;BME280;50130;52.150;5.236;2023-02-04T04:56:12;103265.00000000001;;;6.33;97.54
48892;BME280;50130;52.150;5.236;2023-02-04T04:57:48;103256.0;;;6.38;97.59
48892;BME280;50130;52.150;5.236;2023-02-04T04:59:24;103257.0;;;6.4;97.95
48892;BME280;50130;52.150;5.236;2023-02-04T05:01:00;103258.0;;;6.28;98.25
48892;BME280;50130;52.150;5.236;2023-02-04T05:04:13;103259.99999999999;;;6.39;98.48
48892;BME280;50130;52.150;5.236;2023-02-04T05:05:49;103266.00000000001;;;6.38;98.55
48892;BME280;50130;52.150;5.236;2023-02-04T05:07:25;103261.99999999999;;;6.41;98.72
48892;BME280;50130;52.150;5.236;2023-02-04T05:10:40;103264.00000000001;;;6.45;98.61
48892;BME280;50130;52.150;5.236;2023-02-04T05:12:16;103264.00000000001;;;6.48;98.61
48892;BME280;50130;52.150;5.236;2023-02-04T05:13:53;103258.99999999999;;;6.53;98.52
48892;BME280;50130;52.150;5.236;2023-02-04T05:17:05;103269.0;;;6.62;98.11
48892;BME280;50130;52.150;5.236;2023-02-04T05:18:42;103268.0;;;6.83;97.5
48892;BME280;50130;52.150;5.236;2023-02-04T05:20:19;103269.0;;;6.93;96.49
48892;BME280;50130;52.150;5.236;2023-02-04T05:21:56;103273.0;;;6.75;97.24
48892;BME280;50130;52.150;5.236;2023-02-04T05:25:10;103269.0;;;6.71;97.74
48892;BME280;50130;52.150;5.236;2023-02-04T05:26:46;103267.0;;;6.7;98.08
48892;BME280;50130;52.150;5.236;2023-02-04T05:28:22;103271.0;;;6.57;98.97
48892;BME280;50130;52.150;5.236;2023-02-04T05:31:35;103273.0;;;6.72;98.7
48892;BME280;50130;52.150;5.236;2023-02-04T05:33:11;103271.0;;;6.67;98.99
48892;BME280;50130;52.150;5.236;2023-02-04T05:34:47;103269.0;;;6.62;99.5
48892;BME280;50130;52.150;5.236;2023-02-04T05:37:59;103264.00000000001;;;6.6;99.88
48892;BME280;50130;52.150;5.236;2023-02-04T05:39:36;103264.00000000001;;;6.65;99.88
48892;BME280;50130;52.150;5.236;2023-02-04T05:41:12;103265.00000000001;;;6.62;100.0
48892;BME280;50130;52.150;5.236;2023-02-04T05:42:48;103267.0;;;6.63;100.0
48892;BME280;50130;52.150;5.236;2023-02-04T05:46:00;103267.0;;;6.68;100.0
48892;BME280;50130;52.150;5.236;2023-02-04T05:47:37;103277.0;;;6.9;99.11
48892;BME280;50130;52.150;5.236;2023-02-04T05:49:14;103276.0;;;7.17;97.91
48892;BME280;50130;52.150;5.236;2023-02-04T05:52:27;103286.99999999999;;;7.16;97.15
48892;BME280;50130;52.150;5.236;2023-02-04T05:54:03;103289.00000000001;;;7.2;97.2
48892;BME280;50130;52.150;5.236;2023-02-04T05:55:39;103302.0;;;7.05;97.26
48892;BME280;50130;52.150;5.236;2023-02-04T05:58:52;103311.99999999999;;;7.29;96.48
48892;BME280;50130;52.150;5.236;2023-02-04T06:00:28;103309.99999999999;;;7.21;96.4
48892;BME280;50130;52.150;5.236;2023-02-04T06:02:04;103305.0;;;7.07;97.32
48892;BME280;50130;52.150;5.236;2023-02-04T06:05:18;103297.0;;;6.88;98.12
48892;BME280;50130;52.150;5.236;2023-02-04T06:06:54;103303.0;;;6.94;98.25
48892;BME280;50130;52.150;5.236;2023-02-04T06:08:31;103308.0;;;7.14;97.38
48892;BME280;50130;52.150;5.236;2023-02-04T06:10:08;103315.00000000001;;;6.96;97.75
48892;BME280;50130;52.150;5.236;2023-02-04T06:13:21;103313.00000000001;;;6.88;98.18
48892;BME280;50130;52.150;5.236;2023-02-04T06:14:57;103315.00000000001;;;6.86;98.49
48892;BME280;50130;52.150;5.236;2023-02-04T06:16:34;103319.0;;;6.94;98.31
48892;BME280;50130;52.150;5.236;2023-02-04T06:19:46;103322.0;;;6.81;98.62
48892;BME280;50130;52.150;5.236;2023-02-04T06:21:22;103328.0;;;6.85;98.6
48892;BME280;50130;52.150;5.236;2023-02-04T06:22:58;103331.0;;;6.8;98.76
48892;BME280;50130;52.150;5.236;2023-02-04T06:26:12;103340.00000000001;;;6.85;98.83
48892;BME280;50130;52.150;5.236;2023-02-04T06:27:49;103340.00000000001;;;6.84;98.73
48892;BME280;50130;52.150;5.236;2023-02-04T06:29:25;103345.0;;;6.88;98.61
48892;BME280;50130;52.150;5.236;2023-02-04T06:31:02;103347.0;;;6.92;98.45
48892;BME280;50130;52.150;5.236;2023-02-04T06:34:15;103348.0;;;6.9;98.52
48892;BME280;50130;52.150;5.236;2023-02-04T06:35:52;103349.0;;;6.93;98.47
48892;BME280;50130;52.150;5.236;2023-02-04T06:37:29;103356.0;;;6.82;98.88
48892;BME280;50130;52.150;5.236;2023-02-04T06:40:42;103358.0;;;6.89;98.88
48892;BME280;50130;52.150;5.236;2023-02-04T06:42:18;103358.0;;;6.93;98.6
48892;BME280;50130;52.150;5.236;2023-02-04T06:43:54;103367.0;;;6.86;98.45
48892;BME280;50130;52.150;5.236;2023-02-04T06:47:06;103370.0;;;6.84;98.78
48892;BME280;50130;52.150;5.236;2023-02-04T06:48:42;103372.0;;;6.86;98.9
48892;BME280;50130;52.150;5.236;2023-02-04T06:50:18;103377.0;;;6.83;99.07
48892;BME280;50130;52.150;5.236;2023-02-04T06:51:54;103375.0;;;6.83;99.07
48892;BME280;50130;52.150;5.236;2023-02-04T06:55:06;103379.0;;;6.79;99.37
48892;BME280;50130;52.150;5.236;2023-02-04T06:56:42;103386.99999999999;;;6.86;99.34
48892;BME280;50130;52.150;5.236;2023-02-04T06:58:18;103381.0;;;6.85;99.48
48892;BME280;50130;52.150;5.236;2023-02-04T07:01:30;103383.0;;;6.88;99.28
48892;BME280;50130;52.150;5.236;2023-02-04T07:03:06;103383.99999999999;;;6.88;99.22
48892;BME280;50130;52.150;5.236;2023-02-04T07:04:43;103389.00000000001;;;6.85;99.49
48892;BME280;50130;52.150;5.236;2023-02-04T07:07:54;103384.99999999999;;;6.8;99.77
48892;BME280;50130;52.150;5.236;2023-02-04T07:09:31;103384.99999999999;;;6.88;99.46
48892;BME280;50130;52.150;5.236;2023-02-04T07:11:06;103383.0;;;6.92;99.18
48892;BME280;50130;52.150;5.236;2023-02-04T07:14:18;103388.00000000001;;;6.92;99.29
48892;BME280;50130;52.150;5.236;2023-02-04T07:15:54;103389.00000000001;;;6.91;99.41
48892;BME280;50130;52.150;5.236;2023-02-04T07:17:31;103392.0;;;6.78;99.72
48892;BME280;50130;52.150;5.236;2023-02-04T07:19:07;103399.0;;;6.74;100.0
48892;BME280;50130;52.150;5.236;2023-02-04T07:22:19;103392.0;;;6.74;100.0
48892;BME280;50130;52.150;5.236;2023-02-04T07:23:55;103395.0;;;6.75;100.0
48892;BME280;50130;52.150;5.236;2023-02-04T07:25:32;103388.00000000001;;;6.75;100.0
48892;BME280;50130;52.150;5.236;2023-02-04T07:28:44;103399.0;;;6.85;100.0
48892;BME280;50130;52.150;5.236;2023-02-04T07:30:20;103402.0;;;6.85;100.0
48892;BME280;50130;52.150;5.236;2023-02-04T07:31:56;103406.0;;;6.91;100.0
48892;BME280;50130;52.150;5.236;2023-02-04T07:35:08;103405.0;;;7.01;100.0
48892;BME280;50130;52.150;5.236;2023-02-04T07:36:45;103408.99999999999;;;7.04;100.0
48892;BME280;50130;52.150;5.236;2023-02-04T07:38:22;103414.00000000001;;;7.04;100.0
48892;BME280;50130;52.150;5.236;2023-02-04T07:39:58;103413.00000000001;;;7.02;100.0
48892;BME280;50130;52.150;5.236;2023-02-04T07:43:10;103419.0;;;7.02;100.0
48892;BME280;50130;52.150;5.236;2023-02-04T07:44:46;103418.0;;;7.08;100.0
48892;BME280;50130;52.150;5.236;2023-02-04T07:46:22;103418.0;;;7.08;100.0
48892;BME280;50130;52.150;5.236;2023-02-04T07:49:33;103421.0;;;7.18;100.0
48892;BME280;50130;52.150;5.236;2023-02-04T07:51:09;103422.0;;;7.2;100.0
48892;BME280;50130;52.150;5.236;2023-02-04T07:52:45;103425.0;;;7.21;100.0
48892;BME280;50130;52.150;5.236;2023-02-04T07:55:56;103432.0;;;7.23;100.0
48892;BME280;50130;52.150;5.236;2023-02-04T07:57:33;103425.0;;;7.2;100.0
48892;BME280;50130;52.150;5.236;2023-02-04T07:59:09;103428.0;;;7.22;100.0
48892;BME280;50130;52.150;5.236;2023-02-04T08:02:21;103432.0;;;7.26;100.0
48892;BME280;50130;52.150;5.236;2023-02-04T08:03:57;103433.99999999999;;;7.27;100.0
48892;BME280;50130;52.150;5.236;2023-02-04T08:05:34;103439.00000000001;;;7.32;100.0
48892;BME280;50130;52.150;5.236;2023-02-04T08:07:10;103439.00000000001;;;7.36;100.0
48892;BME280;50130;52.150;5.236;2023-02-04T08:10:22;103440.00000000001;;;7.35;100.0
48892;BME280;50130;52.150;5.236;2023-02-04T08:11:59;103444.0;;;7.34;100.0
48892;BME280;50130;52.150;5.236;2023-02-04T08:13:35;103445.0;;;7.39;100.0
48892;BME280;50130;52.150;5.236;2023-02-04T08:16:48;103448.0;;;7.43;100.0
48892;BME280;50130;52.150;5.236;2023-02-04T08:18:24;103458.0;;;7.46;100.0
48892;BME280;50130;52.150;5.236;2023-02-04T08:20:00;103463.00000000001;;;7.52;100.0
48892;BME280;50130;52.150;5.236;2023-02-04T08:23:12;103465.00000000001;;;7.54;100.0
48892;BME280;50130;52.150;5.236;2023-02-04T08:24:48;103464.00000000001;;;7.59;100.0
48892;BME280;50130;52.150;5.236;2023-02-04T08:26:24;103467.0;;;7.63;100.0
48892;BME280;50130;52.150;5.236;2023-02-04T08:29:38;103467.0;;;7.68;100.0
48892;BME280;50130;52.150;5.236;2023-02-04T08:31:14;103469.0;;;7.75;100.0
48892;BME280;50130;52.150;5.236;2023-02-04T08:32:50;103467.0;;;7.78;100.0
48892;BME280;50130;52.150;5.236;2023-02-04T08:34:26;103468.0;;;7.8;100.0
48892;BME280;50130;52.150;5.236;2023-02-04T08:37:39;103472.0;;;7.85;100.0
48892;BME280;50130;52.150;5.236;2023-02-04T08:39:15;103473.0;;;7.86;100.0
48892;BME280;50130;52.150;5.236;2023-02-04T08:40:52;103479.0;;;7.89;100.0
48892;BME280;50130;52.150;5.236;2023-02-04T08:44:05;103477.0;;;7.94;100.0
48892;BME280;50130;52.150;5.236;2023-02-04T08:45:41;103479.0;;;7.99;100.0
48892;BME280;50130;52.150;5.236;2023-02-04T08:47:17;103483.99999999999;;;8.02;100.0
48892;BME280;50130;52.150;5.236;2023-02-04T08:50:31;103482.0;;;8.14;100.0
48892;BME280;50130;52.150;5.236;2023-02-04T08:52:08;103486.99999999999;;;8.17;100.0
48892;BME280;50130;52.150;5.236;2023-02-04T08:53:44;103489.00000000001;;;8.2;100.0
48892;BME280;50130;52.150;5.236;2023-02-04T08:55:20;103492.0;;;8.26;100.0
48892;BME280;50130;52.150;5.236;2023-02-04T08:58:33;103496.0;;;8.35;100.0
48892;BME280;50130;52.150;5.236;2023-02-04T09:00:11;103499.0;;;8.42;100.0
48892;BME280;50130;52.150;5.236;2023-02-04T09:01:48;103495.0;;;8.44;100.0
48892;BME280;50130;52.150;5.236;2023-02-04T09:05:01;103494.0;;;8.49;100.0
48892;BME280;50130;52.150;5.236;2023-02-04T09:06:37;103502.0;;;8.52;100.0
48892;BME280;50130;52.150;5.236;2023-02-04T09:08:14;103499.0;;;8.59;100.0
48892;BME280;50130;52.150;5.236;2023-02-04T09:11:26;103504.0;;;8.72;100.0
48892;BME280;50130;52.150;5.236;2023-02-04T09:13:03;103500.0;;;8.71;100.0
48892;BME280;50130;52.150;5.236;2023-02-04T09:14:39;103494.0;;;8.75;100.0
48892;BME280;50130;52.150;5.236;2023-02-04T09:16:17;103493.0;;;8.84;100.0
48892;BME280;50130;52.150;5.236;2023-02-04T09:19:36;103499.0;;;8.89;100.0
48892;BME280;50130;52.150;5.236;2023-02-04T09:21:12;103496.0;;;8.88;99.82
48892;BME280;50130;52.150;5.236;2023-02-04T09:22:49;103501.0;;;8.94;99.8
48892;BME280;50130;52.150;5.236;2023-02-04T09:26:03;103506.0;;;9.06;99.74
48892;BME280;50130;52.150;5.236;2023-02-04T09:27:40;103505.0;;;9.23;99.17
48892;BME280;50130;52.150;5.236;2023-02-04T09:29:16;103513.00000000001;;;9.44;98.6
48892;BME280;50130;52.150;5.236;2023-02-04T09:30:53;103511.99999999999;;;9.35;98.54
48892;BME280;50130;52.150;5.236;2023-02-04T09:34:05;103513.00000000001;;;9.32;98.69
48892;BME280;50130;52.150;5.236;2023-02-04T09:35:41;103509.99999999999;;;9.64;97.28
48892;BME280;50130;52.150;5.236;2023-02-04T09:37:17;103508.99999999999;;;9.58;96.78
48892;BME280;50130;52.150;5.236;2023-02-04T09:40:33;103508.99999999999;;;9.69;96.29
48892;BME280;50130;52.150;5.236;2023-02-04T09:42:12;103513.00000000001;;;9.72;95.8
48892;BME280;50130;52.150;5.236;2023-02-04T09:43:49;103516.00000000001;;;9.65;95.18
48892;BME280;50130;52.150;5.236;2023-02-04T09:45:28;103516.00000000001;;;9.6;94.68
48892;BME280;50130;52.150;5.236;2023-02-04T09:48:48;103517.0;;;9.61;94.08
48892;BME280;50130;52.150;5.236;2023-02-04T09:50:27;103517.0;;;9.76;93.54
48892;BME280;50130;52.150;5.236;2023-02-04T09:52:04;103518.0;;;9.81;93.71
48892;BME280;50130;52.150;5.236;2023-02-04T09:55:26;103515.00000000001;;;9.85;93.41
48892;BME280;50130;52.150;5.236;2023-02-04T09:57:12;103522.0;;;9.98;93.28
48892;BME280;50130;52.150;5.236;2023-02-04T09:58:51;103524.0;;;9.93;92.22
48892;BME280;50130;52.150;5.236;2023-02-04T10:00:29;103526.0;;;10.07;91.93
48892;BME280;50130;52.150;5.236;2023-02-04T10:04:00;103533.0;;;10.07;91.57
48892;BME280;50130;52.150;5.236;2023-02-04T10:05:37;103533.99999999999;;;10.3;90.85
48892;BME280;50130;52.150;5.236;2023-02-04T10:07:16;103531.0;;;10.24;89.29
48892;BME280;50130;52.150;5.236;2023-02-04T10:08:54;103534.99999999999;;;10.28;89.16
48892;BME280;50130;52.150;5.236;2023-02-04T10:10:32;103544.0;;;10.39;88.91
48892;BME280;50130;52.150;5.236;2023-02-04T10:13:45;103536.99999999999;;;10.48;88.03
48892;BME280;50130;52.150;5.236;2023-02-04T10:15:23;103536.99999999999;;;10.58;87.62
48892;BME280;50130;52.150;5.236;2023-02-04T10:17:00;103538.00000000001;;;10.51;86.06
48892;BME280;50130;52.150;5.236;2023-02-04T10:20:16;103542.0;;;10.58;86.49
48892;BME280;50130;52.150;5.236;2023-02-04T10:21:54;103544.0;;;10.64;85.8
48892;BME280;50130;52.150;5.236;2023-02-04T10:23:31;103545.0;;;10.54;86.31
48892;BME280;50130;52.150;5.236;2023-02-04T10:26:48;103548.0;;;10.39;87.44
48892;BME280;50130;52.150;5.236;2023-02-04T10:28:32;103548.0;;;10.54;87.64
48892;BME280;50130;52.150;5.236;2023-02-04T10:30:18;103545.0;;;10.67;86.54
48892;BME280;50130;52.150;5.236;2023-02-04T10:31:55;103549.0;;;10.79;85.51
48892;BME280;50130;52.150;5.236;2023-02-04T10:35:12;103546.0;;;10.84;85.39
48892;BME280;50130;52.150;5.236;2023-02-04T10:36:52;103551.0;;;10.72;85.1
48892;BME280;50130;52.150;5.236;2023-02-04T10:38:29;103549.0;;;10.71;83.38
48892;BME280;50130;52.150;5.236;2023-02-04T10:40:24;103549.0;;;10.76;83.57
48892;BME280;50130;52.150;5.236;2023-02-04T10:42:02;103546.0;;;10.89;83.51
48892;BME280;50130;52.150;5.236;2023-02-04T10:45:23;103551.0;;;10.81;84.14
48892;BME280;50130;52.150;5.236;2023-02-04T10:47:00;103551.0;;;11.02;83.15